モントリオール/トルドー の空港の天気 - METARとTAF

モントリオール・ピエール・エリオット・トルドー国際空港 ( CYUL / YUL ) - カナダ ケベック州モントリオール
飛行場実況気象(Metar)
観測時間09/26 08:00 EDT (09/26 12:00 UTC)
風向・風速南西 3m/s
視程10km以上
天気現象
全天の8割程度の雲 雲底高度 7320m
気温22℃
湿度88%
気圧1016hPa
METARCYUL 261200Z 22006KT 15SM BKN240 22/20 A3000 RMK CI7 SLP160 DENSITY ALT 900FT
過去の天気等 Google飛行場航空写真 Wunderground天気予報

過去48時間のMETAR

飛行場予報(TAF)
発表時間: 9/26 07:38 EDT (9/26 11:38 UTC)
予報対象時間: 26日8時 EDT ~ 27日8時 EDT
風向・風速南西 4m/s
視程10km以上
全天の8割程度の雲 雲底高度 7,320m
TAF CYUL 261138Z 2612/2712 22007KT P6SM BKN240 RMK NXT FCST BY 261500Z